Time;durP1;ratioP1;P1;durP2;ratioP2;P2;SDS_P1;SDS_P2;PMS_P1;PMS_P2;Temp;Humidity;BMP_temperature;BMP_pressure;BME280_temperature;BME280_humidity;BME280_pressure;Samples;Min_cycle;Max_cycle;Signal;HPM_P1;HPM_P2
2022/11/14 00:00:44;;;;;;;13.68;7.45;;;4.70;99.90;;;-144.05;67.83;125687.94;5019186;28;20034;-79
2022/11/14 00:03:12;;;;;;;10.18;6.82;;;4.70;99.90;;;-144.05;67.77;125687.94;5017168;28;20026;-81
2022/11/14 00:05:44;;;;;;;11.20;6.95;;;4.60;99.90;;;-144.05;68.19;125687.94;5019026;28;20026;-80
2022/11/14 00:08:24;;;;;;;10.45;7.10;;;4.50;99.90;;;-144.05;68.24;125687.94;5018658;28;20038;-79
2022/11/14 00:10:51;;;;;;;11.60;7.90;;;4.40;99.90;;;-144.05;68.54;125687.94;5016441;28;20492;-79
2022/11/14 00:13:19;;;;;;;12.63;7.97;;;4.30;99.90;;;-144.05;69.77;125687.94;5015365;28;20121;-79
2022/11/14 00:15:53;;;;;;;13.00;7.20;;;4.40;99.90;;;-144.05;69.60;125687.94;4998110;28;20026;-79
2022/11/14 00:18:19;;;;;;;10.90;7.80;;;4.40;99.90;;;-144.05;69.55;125687.94;4998128;28;20026;-79
2022/11/14 00:20:52;;;;;;;11.70;8.60;;;4.30;99.90;;;-144.05;69.40;125687.94;5014299;28;20359;-79
2022/11/14 00:23:20;;;;;;;13.93;8.55;;;4.20;99.90;;;-144.05;70.19;125687.94;5015701;28;20076;-80
2022/11/14 00:25:47;;;;;;;12.38;7.65;;;4.20;99.90;;;-144.05;70.04;125687.94;5013903;28;20026;-82
2022/11/14 00:28:16;;;;;;;12.18;7.45;;;4.30;99.90;;;-144.05;70.53;125687.94;5014821;28;20372;-82
2022/11/14 00:30:48;;;;;;;12.93;8.50;;;4.30;99.90;;;-144.05;70.04;125687.94;5015272;28;20029;-80
2022/11/14 00:33:14;;;;;;;11.75;7.65;;;4.10;99.90;;;-144.05;70.28;125687.94;5015290;28;20026;-78
2022/11/14 00:35:40;;;;;;;16.30;8.25;;;4.00;99.90;;;-144.05;70.62;125687.94;5015230;28;20441;-79
2022/11/14 00:38:05;;;;;;;12.55;8.15;;;4.00;99.90;;;-144.05;70.10;125687.94;5014813;28;20048;-77
2022/11/14 00:40:31;;;;;;;11.75;7.00;;;3.70;99.90;;;-144.05;69.78;125687.94;5014678;28;20105;-79
2022/11/14 00:42:57;;;;;;;11.95;8.07;;;3.50;99.90;;;-144.05;70.56;125687.94;5014740;28;20100;-81
2022/11/14 00:45:23;;;;;;;12.57;8.60;;;3.50;99.90;;;-144.05;71.41;125687.94;5014869;28;20025;-79
2022/11/14 00:47:49;;;;;;;14.20;8.98;;;3.50;99.90;;;-144.05;71.51;125687.94;5015017;28;20401;-80
2022/11/14 00:50:16;;;;;;;12.25;8.38;;;3.60;99.90;;;-144.05;71.93;125687.94;5014967;28;20041;-79
2022/11/14 00:52:42;;;;;;;13.55;9.60;;;3.50;99.90;;;-144.05;72.34;125687.94;4997145;28;20176;-81
2022/11/14 00:55:08;;;;;;;11.73;8.13;;;3.60;99.90;;;-144.05;72.00;125687.94;5014424;28;20062;-80
2022/11/14 00:57:34;;;;;;;14.05;8.50;;;3.40;99.90;;;-144.05;71.85;125687.94;4996911;28;20026;-80
2022/11/14 00:59:59;;;;;;;13.75;8.77;;;3.30;99.90;;;-144.05;72.49;125687.94;5014805;28;20037;-80
2022/11/14 01:02:25;;;;;;;13.23;8.45;;;3.30;99.90;;;-144.05;71.30;125687.94;5014596;28;20499;-80
2022/11/14 01:04:51;;;;;;;13.95;8.50;;;3.10;99.90;;;-144.05;72.19;125687.94;5013143;28;20058;-81
2022/11/14 01:07:17;;;;;;;10.98;7.38;;;3.00;99.90;;;-144.05;71.83;125687.94;4996911;28;20030;-78
2022/11/14 01:09:43;;;;;;;10.88;7.70;;;2.70;99.90;;;-144.05;72.67;125687.94;5015128;28;20036;-79
2022/11/14 01:12:09;;;;;;;14.38;8.85;;;2.70;99.90;;;-144.05;73.87;125687.94;5013840;28;20022;-79
2022/11/14 01:14:35;;;;;;;14.45;9.98;;;2.90;99.90;;;-144.05;74.51;125687.94;4996082;28;20401;-78
2022/11/14 01:17:00;;;;;;;14.73;9.27;;;3.10;99.90;;;-144.05;74.33;125687.94;5012814;28;20033;-79
2022/11/14 01:19:26;;;;;;;19.25;10.65;;;3.10;99.90;;;-144.05;74.99;125687.94;5014258;28;20030;-81
2022/11/14 01:21:52;;;;;;;15.30;9.50;;;3.30;99.90;;;-144.05;74.63;125687.94;4996264;28;20398;-80
2022/11/14 01:24:18;;;;;;;12.45;8.80;;;3.20;99.90;;;-144.05;73.84;125687.94;5013562;28;20030;-80
2022/11/14 01:26:44;;;;;;;12.70;8.73;;;2.90;99.90;;;-144.05;73.91;125687.94;4996140;28;20092;-81
2022/11/14 01:29:10;;;;;;;11.88;7.78;;;2.80;99.90;;;-144.05;72.87;125687.94;5012658;28;20202;-79
2022/11/14 01:31:35;;;;;;;10.82;8.02;;;2.40;99.90;;;-144.05;72.88;125687.94;5013879;28;20022;-79
2022/11/14 01:34:01;;;;;;;15.50;8.90;;;2.10;99.90;;;-144.05;72.68;125687.94;5012489;28;20033;-78
2022/11/14 01:36:27;;;;;;;11.00;7.85;;;1.90;99.90;;;-144.05;73.33;125687.94;5013799;28;20083;-76
2022/11/14 01:38:53;;;;;;;11.27;7.22;;;1.80;99.90;;;-144.05;72.56;125687.94;5013108;28;20034;-79
2022/11/14 01:41:21;;;;;;;12.68;8.40;;;1.60;99.90;;;-144.05;72.63;125687.94;5013968;28;20030;-78
2022/11/14 01:43:47;;;;;;;15.85;9.25;;;1.50;99.90;;;-144.05;73.03;125687.94;5013628;28;20038;-80
2022/11/14 01:46:31;;;;;;;13.68;9.45;;;1.40;99.90;;;-144.05;73.30;125687.94;5013766;28;20034;-80
2022/11/14 01:49:19;;;;;;;14.70;9.50;;;1.50;99.90;;;-144.05;73.41;125687.94;5013945;28;20493;-79
2022/11/14 01:52:00;;;;;;;14.02;9.57;;;1.50;99.90;;;-144.05;73.60;125687.94;5013569;28;20026;-80
2022/11/14 01:54:34;;;;;;;13.93;8.77;;;1.40;99.90;;;-144.05;73.33;125687.94;5013877;28;20036;-79
2022/11/14 01:57:05;;;;;;;12.93;8.50;;;1.30;99.90;;;-144.05;73.05;125687.94;5013353;28;20222;-78
2022/11/14 01:59:39;;;;;;;14.18;8.93;;;1.20;99.90;;;-144.05;73.60;125687.94;5013569;28;20405;-81
2022/11/14 02:02:24;;;;;;;14.50;9.02;;;1.10;99.90;;;-144.05;73.71;125687.94;4995671;28;20508;-80
2022/11/14 02:05:01;;;;;;;16.60;10.27;;;1.00;99.90;;;-144.05;74.95;125687.94;5013420;28;20026;-78
2022/11/14 02:07:33;;;;;;;14.63;10.00;;;1.00;99.90;;;-144.05;74.64;125687.94;5013614;28;20044;-79
2022/11/14 02:10:15;;;;;;;14.52;9.88;;;1.20;99.90;;;-144.05;74.48;125687.94;5013204;28;20030;-79
2022/11/14 02:12:41;;;;;;;13.48;9.88;;;1.30;99.90;;;-144.05;75.37;125687.94;5013473;28;20448;-80
2022/11/14 02:15:09;;;;;;;17.70;10.20;;;1.30;99.90;;;-144.05;75.01;125687.94;5013573;28;20029;-78
2022/11/14 02:17:35;;;;;;;13.63;10.10;;;1.40;99.90;;;-144.05;74.94;125687.94;5013290;28;20113;-79
2022/11/14 02:20:10;;;;;;;13.63;9.63;;;1.40;99.90;;;-144.05;75.20;125687.94;4995938;28;20058;-80
2022/11/14 02:22:39;;;;;;;16.58;10.45;;;1.40;99.90;;;-144.05;75.05;125687.94;5013548;28;20108;-79
2022/11/14 02:25:08;;;;;;;15.73;9.73;;;1.40;99.90;;;-144.05;74.98;125687.94;5013107;28;20041;-79
2022/11/14 02:27:36;;;;;;;15.43;10.63;;;1.30;99.90;;;-144.05;75.26;125687.94;5012176;28;20120;-80
2022/11/14 02:30:20;;;;;;;14.93;9.77;;;1.30;99.90;;;-144.05;74.83;125687.94;5012854;28;20613;-79
2022/11/14 02:32:46;;;;;;;16.60;10.15;;;1.20;99.90;;;-144.05;75.45;125687.94;5013418;28;20088;-80
2022/11/14 02:35:12;;;;;;;14.10;8.82;;;1.20;99.90;;;-144.05;75.21;125687.94;5011950;28;20034;-81
2022/11/14 02:37:39;;;;;;;13.50;9.07;;;1.10;99.90;;;-144.05;75.03;125687.94;5011633;28;20033;-81
2022/11/14 02:40:06;;;;;;;14.98;9.32;;;1.00;99.90;;;-144.05;74.64;125687.94;5011939;28;20030;-79
2022/11/14 02:42:32;;;;;;;15.05;9.40;;;0.80;99.90;;;-144.05;74.74;125687.94;4995438;28;20035;-81
2022/11/14 02:44:58;;;;;;;16.75;9.55;;;0.60;99.90;;;-144.05;75.23;125687.94;5012965;28;20512;-81
2022/11/14 02:47:24;;;;;;;15.55;9.77;;;0.60;99.90;;;-144.05;75.28;125687.94;5013396;28;20057;-79
2022/11/14 02:49:50;;;;;;;15.52;10.48;;;0.60;99.90;;;-144.05;75.50;125687.94;5013202;28;20048;-82
2022/11/14 02:52:17;;;;;;;15.88;10.50;;;0.70;99.90;;;-144.05;75.55;125687.94;5014815;28;20041;-82
2022/11/14 02:54:43;;;;;;;19.95;11.18;;;0.70;99.90;;;-144.05;75.72;125687.94;5011955;28;20117;-80
2022/11/14 02:57:08;;;;;;;14.80;9.23;;;0.80;99.90;;;-144.05;75.62;125687.94;5011912;28;20061;-82
2022/11/14 02:59:34;;;;;;;14.30;9.55;;;0.80;99.90;;;-144.05;75.61;125687.94;5011409;28;20500;-80
2022/11/14 03:02:00;;;;;;;20.33;11.20;;;0.70;99.90;;;-144.05;75.68;125687.94;4995348;28;20034;-80
2022/11/14 03:04:26;;;;;;;23.67;11.30;;;0.80;99.90;;;-144.05;76.56;125687.94;5012858;28;20022;-81
2022/11/14 03:06:52;;;;;;;15.10;10.68;;;1.00;99.90;;;-144.05;76.68;125687.94;5013824;28;20064;-80
2022/11/14 03:09:19;;;;;;;14.55;9.57;;;1.20;99.90;;;-144.05;75.87;125687.94;5013322;28;20057;-79
2022/11/14 03:11:45;;;;;;;18.50;9.95;;;0.90;99.90;;;-144.05;76.84;125687.94;5013284;28;20028;-79
2022/11/14 03:14:10;;;;;;;14.75;9.70;;;1.00;99.90;;;-144.05;76.45;125687.94;5013006;28;20034;-77
2022/11/14 03:16:36;;;;;;;15.93;10.02;;;0.80;99.90;;;-144.05;76.31;125687.94;5013383;28;20029;-82
2022/11/14 03:19:02;;;;;;;15.63;10.27;;;0.70;99.90;;;-144.05;76.38;125687.94;5013199;28;20026;-80
2022/11/14 03:21:28;;;;;;;15.98;9.48;;;0.70;99.90;;;-144.05;76.03;125687.94;5011908;28;20026;-79
2022/11/14 03:23:54;;;;;;;17.75;10.63;;;0.50;99.90;;;-144.05;76.82;125687.94;5013077;28;20504;-78
2022/11/14 03:26:20;;;;;;;20.55;10.63;;;0.60;99.90;;;-144.05;76.05;125687.94;5013609;28;20104;-78
2022/11/14 03:28:46;;;;;;;15.57;10.13;;;0.50;99.90;;;-144.05;76.15;125687.94;5013045;28;20068;-81
2022/11/14 03:31:13;;;;;;;16.42;10.52;;;0.50;99.90;;;-144.05;76.42;125687.94;5013321;28;20136;-82
2022/11/14 03:33:39;;;;;;;15.10;10.05;;;0.40;99.90;;;-144.05;76.51;125687.94;5013298;28;20022;-77
2022/11/14 03:36:07;;;;;;;12.90;9.80;;;0.50;99.90;;;-144.05;76.66;125687.94;5012175;28;20116;-82
2022/11/14 03:38:34;;;;;;;15.98;10.60;;;0.50;99.90;;;-144.05;76.34;125687.94;5013453;28;20026;-78
2022/11/14 03:41:01;;;;;;;14.20;9.75;;;0.40;99.90;;;-144.05;76.74;125687.94;5013363;28;20057;-81
2022/11/14 03:43:33;;;;;;;18.48;10.85;;;0.40;99.90;;;-144.05;76.88;125687.94;5012746;28;20644;-81
2022/11/14 03:46:02;;;;;;;15.25;10.00;;;0.50;99.90;;;-144.05;76.51;125687.94;4995125;28;20026;-78
2022/11/14 03:48:29;;;;;;;18.60;10.43;;;0.40;99.90;;;-144.05;76.71;125687.94;5014923;28;20375;-81
2022/11/14 03:50:56;;;;;;;18.20;11.63;;;0.40;99.90;;;-144.05;76.91;125687.94;5016881;28;20053;-82
2022/11/14 03:53:23;;;;;;;18.25;10.70;;;0.50;99.90;;;-144.05;76.70;125687.94;5015730;28;20091;-80
2022/11/14 03:55:50;;;;;;;20.67;13.13;;;0.60;99.90;;;-144.05;77.24;125687.94;5019524;28;20242;-78
2022/11/14 03:58:16;;;;;;;18.65;10.98;;;0.70;99.90;;;-144.05;76.63;125687.94;5030203;28;20022;-79
2022/11/14 04:00:42;;;;;;;17.63;10.73;;;0.70;99.90;;;-144.05;76.57;125687.94;5028597;28;20030;-79
2022/11/14 04:03:09;;;;;;;18.02;12.00;;;0.60;99.90;;;-144.05;76.91;125687.94;5025425;28;20044;-79
2022/11/14 04:05:35;;;;;;;20.58;12.27;;;0.50;99.90;;;-144.05;76.99;125687.94;5025242;28;20026;-77
2022/11/14 04:08:05;;;;;;;17.23;11.48;;;0.60;99.90;;;-144.05;76.86;125687.94;5022978;28;20042;-81
2022/11/14 04:10:31;;;;;;;16.90;9.60;;;0.50;99.90;;;-144.05;76.56;125687.94;5018503;28;20068;-77
2022/11/14 04:12:57;;;;;;;17.13;10.68;;;0.40;99.90;;;-144.05;76.99;125687.94;5017314;28;20065;-79
2022/11/14 04:15:23;;;;;;;17.48;11.45;;;0.30;99.90;;;-144.05;77.21;125687.94;5000119;28;20033;-81
2022/11/14 04:17:49;;;;;;;19.20;12.13;;;0.30;99.90;;;-144.05;77.19;125687.94;5015770;28;20033;-81
2022/11/14 04:20:15;;;;;;;21.50;13.05;;;0.30;99.90;;;-144.05;77.91;125687.94;5015795;28;20489;-82
2022/11/14 04:22:41;;;;;;;18.23;10.45;;;0.50;99.90;;;-144.05;77.06;125687.94;4999316;28;20034;-81
2022/11/14 04:25:08;;;;;;;16.42;10.73;;;0.50;99.90;;;-144.05;76.94;125687.94;5017048;28;20083;-82
2022/11/14 04:27:34;;;;;;;16.98;10.07;;;0.40;99.90;;;-144.05;77.18;125687.94;5016840;28;20109;-81
2022/11/14 04:30:01;;;;;;;16.77;9.90;;;0.30;99.90;;;-144.05;77.01;125687.94;5015301;28;20117;-80
2022/11/14 04:32:27;;;;;;;18.17;10.80;;;0.30;99.90;;;-144.05;77.08;125687.94;5017094;28;20081;-81
2022/11/14 04:34:52;;;;;;;20.33;12.02;;;0.30;99.90;;;-144.05;77.18;125687.94;4998961;28;20034;-81
2022/11/14 04:37:18;;;;;;;18.77;10.98;;;0.20;99.90;;;-144.05;77.15;125687.94;5015385;28;20112;-81
2022/11/14 04:39:44;;;;;;;15.63;10.23;;;0.20;99.90;;;-144.05;77.00;125687.94;5015655;28;20034;-80
2022/11/14 04:42:10;;;;;;;21.02;11.73;;;0.10;99.90;;;-144.05;77.73;125687.94;5015443;28;20048;-82
2022/11/14 04:44:36;;;;;;;23.58;13.48;;;0.20;99.90;;;-144.05;77.60;125687.94;5016628;28;20115;-81
2022/11/14 04:47:01;;;;;;;20.40;12.50;;;0.20;99.90;;;-144.05;77.66;125687.94;5017628;28;20038;-82
2022/11/14 04:49:27;;;;;;;20.27;12.57;;;0.30;99.90;;;-144.05;77.88;125687.94;5019948;28;20026;-81
2022/11/14 04:51:54;;;;;;;20.75;12.80;;;0.30;99.90;;;-144.05;77.75;125687.94;5025223;28;20096;-79
2022/11/14 04:54:20;;;;;;;20.98;13.00;;;0.40;99.90;;;-144.05;77.63;125687.94;5022444;28;20501;-79
2022/11/14 04:56:45;;;;;;;17.30;11.13;;;0.50;99.90;;;-144.05;77.40;125687.94;5024152;28;20045;-80
2022/11/14 04:59:11;;;;;;;16.58;10.23;;;0.50;99.90;;;-144.05;77.26;125687.94;5022611;28;20048;-80
2022/11/14 05:01:37;;;;;;;19.08;12.05;;;0.40;99.90;;;-144.05;77.31;125687.94;5005621;28;20033;-79
2022/11/14 05:04:03;;;;;;;16.50;10.55;;;0.40;99.90;;;-144.05;77.18;125687.94;5021836;28;20476;-79
2022/11/14 05:06:29;;;;;;;20.40;11.85;;;0.30;99.90;;;-144.05;77.21;125687.94;5014132;28;20038;-78
2022/11/14 05:08:55;;;;;;;19.70;12.02;;;0.20;99.90;;;-144.05;77.44;125687.94;5014636;28;20036;-80
2022/11/14 05:11:21;;;;;;;17.33;10.27;;;0.20;99.90;;;-144.05;77.44;125687.94;5013626;28;20037;-80
2022/11/14 05:13:47;;;;;;;16.30;11.18;;;0.20;99.90;;;-144.05;77.05;125687.94;5014959;28;20069;-83
2022/11/14 05:16:13;;;;;;;19.13;10.52;;;0.20;99.90;;;-144.05;76.96;125687.94;4996975;28;20045;-81
2022/11/14 05:18:39;;;;;;;18.23;11.35;;;0.10;99.90;;;-144.05;77.34;125687.94;5014469;28;20053;-82
2022/11/14 05:21:05;;;;;;;17.77;11.10;;;0.00;99.90;;;-144.05;77.29;125687.94;5014880;28;20104;-82
2022/11/14 05:23:32;;;;;;;18.00;11.68;;;0.00;99.90;;;-144.05;77.39;125687.94;5013414;28;20489;-81
2022/11/14 05:26:13;;;;;;;16.35;10.52;;;0.00;99.90;;;-144.05;77.33;125687.94;5014148;28;20124;-79
2022/11/14 05:28:40;;;;;;;17.25;11.02;;;0.00;99.90;;;-144.05;77.29;125687.94;5014351;28;20034;-81
2022/11/14 05:31:13;;;;;;;17.75;10.63;;;0.00;99.90;;;-144.05;77.57;125687.94;5014640;28;20034;-77
2022/11/14 05:33:39;;;;;;;17.42;10.73;;;0.10;99.90;;;-144.05;77.52;125687.94;5014954;28;20493;-78
2022/11/14 05:36:10;;;;;;;20.40;11.23;;;0.10;99.90;;;-144.05;77.54;125687.94;4997473;28;20033;-81
2022/11/14 05:38:37;;;;;;;16.33;9.57;;;0.20;99.90;;;-144.05;77.37;125687.94;5014771;28;20034;-77
2022/11/14 05:41:09;;;;;;;15.25;10.05;;;0.10;99.90;;;-144.05;77.39;125687.94;5013213;28;20111;-78
2022/11/14 05:43:35;;;;;;;16.67;10.80;;;0.10;99.90;;;-144.05;77.58;125687.94;5014540;28;20052;-79
2022/11/14 05:46:05;;;;;;;16.13;10.45;;;0.10;99.90;;;-144.05;77.56;125687.94;5013368;28;20040;-81
2022/11/14 05:48:32;;;;;;;16.30;10.30;;;0.10;99.90;;;-144.05;77.41;125687.94;4997115;28;20567;-79
2022/11/14 05:51:02;;;;;;;20.05;10.95;;;0.10;99.90;;;-144.05;77.63;125687.94;5014632;28;20026;-79
2022/11/14 05:53:32;;;;;;;16.17;10.32;;;0.10;99.90;;;-144.05;77.51;125687.94;5013534;28;20148;-79
2022/11/14 05:56:05;;;;;;;16.98;10.77;;;0.10;99.90;;;-144.05;77.81;125687.94;5014732;28;20096;-78
2022/11/14 05:58:33;;;;;;;18.40;9.85;;;0.20;99.90;;;-144.05;77.52;125687.94;5014648;28;20038;-80
2022/11/14 06:01:14;;;;;;;17.67;10.55;;;0.10;99.90;;;-144.05;77.53;125687.94;4997041;28;20030;-78
2022/11/14 06:03:47;;;;;;;16.63;10.63;;;0.10;99.90;;;-144.05;77.70;125687.94;4997369;28;20064;-77
2022/11/14 06:06:20;;;;;;;18.50;9.40;;;0.10;99.90;;;-144.05;77.35;125687.94;5015177;28;20045;-78
2022/11/14 06:08:47;;;;;;;15.02;9.40;;;0.10;99.90;;;-144.05;77.66;125687.94;5014210;28;20124;-80
2022/11/14 06:11:19;;;;;;;15.63;9.52;;;0.00;99.90;;;-144.05;77.48;125687.94;5013409;28;20099;-79
2022/11/14 06:13:45;;;;;;;20.75;11.23;;;0.00;99.90;;;-144.05;78.07;125687.94;4996374;28;20037;-80
2022/11/14 06:16:17;;;;;;;17.70;9.35;;;0.10;99.90;;;-144.05;77.86;125687.94;5012775;28;20030;-80
2022/11/14 06:18:45;;;;;;;19.75;9.98;;;0.10;99.90;;;-144.05;77.69;125687.94;4996868;28;20034;-80
2022/11/14 06:21:16;;;;;;;17.83;11.25;;;0.10;99.90;;;-144.05;77.63;125687.94;4997087;28;20030;-80
2022/11/14 06:23:44;;;;;;;15.50;10.00;;;0.20;99.90;;;-144.05;77.22;125687.94;5015487;28;20026;-79
2022/11/14 06:26:30;;;;;;;16.70;9.57;;;0.10;99.90;;;-144.05;77.02;125687.94;4997275;28;20362;-79
2022/11/14 06:28:59;;;;;;;16.05;9.90;;;0.00;99.90;;;-144.05;77.56;125687.94;5013733;28;20041;-80
2022/11/14 06:31:25;;;;;;;15.43;9.85;;;0.00;99.90;;;-144.05;77.49;125687.94;5013612;28;20037;-79
2022/11/14 06:33:52;;;;;;;14.85;10.02;;;0.10;99.90;;;-144.05;77.55;125687.94;4997129;28;20477;-78
2022/11/14 06:36:18;;;;;;;14.13;9.85;;;0.10;99.90;;;-144.05;77.26;125687.94;5014697;28;20397;-78
2022/11/14 06:38:44;;;;;;;21.33;10.82;;;0.00;99.90;;;-144.05;77.29;125687.94;5016540;28;20033;-79
2022/11/14 06:41:17;;;;;;;18.58;10.45;;;0.00;99.90;;;-144.05;77.75;125687.94;5017169;28;20044;-80
2022/11/14 06:43:52;;;;;;;19.73;12.35;;;0.10;99.90;;;-144.05;77.80;125687.94;5016063;28;20489;-79
2022/11/14 06:46:21;;;;;;;27.03;12.37;;;0.20;99.90;;;-144.05;77.66;125687.94;5015916;28;20033;-79
2022/11/14 06:48:49;;;;;;;17.48;12.32;;;0.30;99.90;;;-144.05;77.64;125687.94;5016587;28;20269;-79
2022/11/14 06:51:17;;;;;;;24.70;17.42;;;0.30;99.90;;;-144.05;77.48;125687.94;5015786;28;20036;-81
2022/11/14 06:53:44;;;;;;;18.67;14.23;;;0.30;99.90;;;-144.05;77.41;125687.94;5016049;28;20117;-79
2022/11/14 06:56:17;;;;;;;20.42;12.50;;;0.20;99.90;;;-144.05;77.24;125687.94;5015700;28;20071;-78
2022/11/14 06:58:47;;;;;;;23.63;14.20;;;0.20;99.90;;;-144.05;77.29;125687.94;5015757;28;20030;-79
2022/11/14 07:01:32;;;;;;;21.90;12.55;;;0.10;99.90;;;-144.05;77.64;125687.94;5014989;28;20037;-79
2022/11/14 07:03:59;;;;;;;20.77;12.88;;;0.20;99.90;;;-144.05;77.17;125687.94;5015018;28;20029;-79
2022/11/14 07:06:28;;;;;;;16.70;10.70;;;0.10;99.90;;;-144.05;77.09;125687.94;5015243;28;20096;-80
2022/11/14 07:08:56;;;;;;;19.23;11.73;;;0.00;99.90;;;-144.05;77.39;125687.94;5015390;28;20036;-79
2022/11/14 07:11:28;;;;;;;22.17;11.80;;;0.10;99.90;;;-144.05;77.48;125687.94;5013915;28;20025;-78
2022/11/14 07:14:00;;;;;;;26.30;13.45;;;0.20;99.90;;;-144.05;77.66;125687.94;4998412;28;20025;-79
2022/11/14 07:16:34;;;;;;;24.30;12.70;;;0.30;99.90;;;-144.05;77.69;125687.94;5015740;28;20112;-80
2022/11/14 07:19:03;;;;;;;25.45;14.45;;;0.40;99.90;;;-144.05;77.75;125687.94;5015664;28;20037;-82
2022/11/14 07:21:32;;;;;;;22.55;12.70;;;0.50;99.90;;;-144.05;77.65;125687.94;5015367;28;20082;-79
2022/11/14 07:23:58;;;;;;;17.52;11.68;;;0.60;99.90;;;-144.05;77.98;125687.94;5018128;28;20057;-80
2022/11/14 07:26:26;;;;;;;17.60;11.27;;;0.80;99.90;;;-144.05;78.00;125687.94;5001923;28;20036;-80
2022/11/14 07:28:52;;;;;;;17.45;11.23;;;1.00;99.90;;;-144.05;77.75;125687.94;5017270;28;20130;-77
2022/11/14 07:31:20;;;;;;;20.40;12.07;;;1.10;99.90;;;-144.05;77.74;125687.94;5018601;28;20106;-79
2022/11/14 07:33:46;;;;;;;19.33;11.60;;;1.30;99.90;;;-144.05;77.54;125687.94;5023259;28;20091;-81
2022/11/14 07:36:15;;;;;;;20.52;11.88;;;1.40;99.90;;;-144.05;77.30;125687.94;5019148;28;20100;-80
2022/11/14 07:38:42;;;;;;;19.10;11.10;;;1.60;99.90;;;-144.05;77.59;125687.94;5025017;28;20323;-77
2022/11/14 07:41:13;;;;;;;21.52;11.68;;;1.80;99.90;;;-144.05;77.39;125687.94;5017767;28;20034;-77
2022/11/14 07:43:40;;;;;;;23.50;10.70;;;2.00;99.90;;;-144.05;76.66;125687.94;5018007;28;20060;-79
2022/11/14 07:46:12;;;;;;;16.33;10.93;;;2.20;99.90;;;-144.05;76.37;125687.94;5018803;28;20025;-79
2022/11/14 07:48:39;;;;;;;17.35;10.80;;;2.50;99.90;;;-144.05;75.97;125687.94;5018063;28;20084;-80
2022/11/14 07:51:14;;;;;;;21.67;11.23;;;2.60;99.90;;;-144.05;75.65;125687.94;5019787;28;20080;-78
2022/11/14 07:53:40;;;;;;;20.58;11.77;;;2.90;99.90;;;-144.05;74.05;125687.94;5018698;28;20080;-77
2022/11/14 07:56:08;;;;;;;19.63;10.95;;;3.00;99.90;;;-144.05;73.12;125687.94;5019069;28;20056;-78
2022/11/14 07:58:38;;;;;;;19.65;10.30;;;3.10;99.90;;;-144.05;72.96;125687.94;5019841;28;20034;-80
2022/11/14 08:01:07;;;;;;;24.30;10.23;;;3.30;99.90;;;-144.05;71.84;125687.94;5023069;28;20042;-80
2022/11/14 08:03:34;;;;;;;18.95;9.88;;;3.50;99.90;;;-144.05;71.20;125687.94;5021768;28;20065;-80
2022/11/14 08:06:13;;;;;;;17.20;9.73;;;3.70;99.90;;;-144.05;70.34;125687.94;5019346;28;20064;-80
2022/11/14 08:08:39;;;;;;;16.88;9.73;;;3.90;99.90;;;-144.05;69.83;125687.94;5018476;28;20133;-78
2022/11/14 08:11:06;;;;;;;17.90;10.23;;;4.10;99.90;;;-144.05;69.46;125687.94;5019588;28;20026;-78
2022/11/14 08:13:32;;;;;;;16.75;8.77;;;4.30;99.90;;;-144.05;68.66;125687.94;5018245;28;20026;-80
2022/11/14 08:16:01;;;;;;;14.00;8.38;;;4.50;99.90;;;-144.05;68.40;125687.94;5017990;28;20029;-77
2022/11/14 08:18:27;;;;;;;16.02;9.35;;;4.70;99.90;;;-144.05;67.76;125687.94;5019386;28;20033;-80
2022/11/14 08:20:56;;;;;;;14.00;9.75;;;4.90;99.90;;;-144.05;66.93;125687.94;5020706;28;20048;-78
2022/11/14 08:23:22;;;;;;;17.27;9.60;;;5.10;99.90;;;-144.05;66.64;125687.94;5019953;28;20051;-79
2022/11/14 08:25:48;;;;;;;16.63;8.55;;;5.40;99.90;;;-144.05;65.33;125687.94;5019464;28;20030;-83
2022/11/14 08:28:14;;;;;;;15.80;9.25;;;5.60;99.90;;;-144.05;65.23;125687.94;5018448;28;20037;-81
2022/11/14 08:30:40;;;;;;;16.17;9.48;;;5.70;99.90;;;-144.05;64.36;125687.94;5019454;28;20022;-84
2022/11/14 08:33:07;;;;;;;15.30;9.10;;;6.00;99.90;;;-144.05;64.28;125687.94;5001976;28;20033;-80
2022/11/14 08:35:33;;;;;;;18.63;9.27;;;6.20;99.90;;;-144.05;63.99;125687.94;5018884;28;20026;-80
2022/11/14 08:38:02;;;;;;;17.60;11.02;;;6.40;99.90;;;-144.05;62.91;125687.94;5018839;28;20040;-79
2022/11/14 08:40:29;;;;;;;20.33;10.60;;;6.50;99.90;;;-144.05;61.58;125687.94;5019984;28;20086;-81
2022/11/14 08:43:01;;;;;;;16.27;11.15;;;6.50;99.90;;;-144.05;61.20;125687.94;5020438;28;20077;-78
2022/11/14 08:45:29;;;;;;;16.58;10.63;;;6.70;99.90;;;-144.05;60.95;125687.94;5019455;28;20081;-81
2022/11/14 08:47:55;;;;;;;16.65;10.27;;;7.00;99.90;;;-144.05;61.09;125687.94;5019153;28;20452;-79
2022/11/14 08:50:22;;;;;;;18.90;11.48;;;7.30;99.90;;;-144.05;60.40;125687.94;5026884;28;20066;-78
2022/11/14 08:52:51;;;;;;;15.68;9.95;;;7.50;99.90;;;-144.05;59.70;125687.94;5029454;28;20022;-77
2022/11/14 08:55:19;;;;;;;20.58;11.40;;;7.70;99.90;;;-144.05;58.58;125687.94;5010589;28;20030;-79
2022/11/14 08:57:46;;;;;;;17.17;11.55;;;7.80;99.90;;;-144.05;57.88;125687.94;5021961;28;20033;-80
2022/11/14 09:00:13;;;;;;;20.58;11.05;;;7.90;99.90;;;-144.05;57.59;125687.94;5002509;28;20098;-80
2022/11/14 09:02:40;;;;;;;20.17;11.80;;;8.10;99.90;;;-144.05;56.67;125687.94;5017702;28;20168;-80
2022/11/14 09:05:06;;;;;;;20.45;10.02;;;8.20;99.90;;;-144.05;56.58;125687.94;5021038;28;20484;-78
2022/11/14 09:07:32;;;;;;;17.88;9.93;;;8.30;99.90;;;-144.05;55.96;125687.94;5018639;28;20030;-78
2022/11/14 09:09:58;;;;;;;16.98;10.05;;;8.40;99.90;;;-144.05;56.24;125687.94;5018662;28;20116;-79
2022/11/14 09:12:24;;;;;;;16.73;10.68;;;8.50;99.90;;;-144.05;55.49;125687.94;5020133;28;20032;-79
2022/11/14 09:14:49;;;;;;;15.75;10.60;;;8.70;99.90;;;-144.05;55.19;125687.94;5018909;28;20251;-78
2022/11/14 09:17:15;;;;;;;22.42;10.57;;;8.80;99.90;;;-144.05;55.67;125687.94;5019072;28;20038;-78
2022/11/14 09:19:41;;;;;;;18.00;10.02;;;9.00;99.90;;;-144.05;55.81;125687.94;5019073;28;20022;-80
2022/11/14 09:22:07;;;;;;;26.20;12.82;;;9.20;99.90;;;-144.05;55.52;125687.94;5001105;28;20097;-80
2022/11/14 09:24:33;;;;;;;18.42;10.88;;;9.30;99.90;;;-144.05;56.32;125687.94;5017891;28;20122;-82
2022/11/14 09:26:58;;;;;;;18.60;11.60;;;9.60;99.90;;;-144.05;56.79;125687.94;5018170;28;20050;-78
2022/11/14 09:29:24;;;;;;;16.23;11.13;;;9.70;99.90;;;-144.05;55.91;125687.94;5018321;28;20037;-78
2022/11/14 09:31:54;;;;;;;16.02;11.10;;;9.80;99.90;;;-144.05;55.64;125687.94;5017861;28;20041;-78
2022/11/14 09:34:20;;;;;;;18.48;11.05;;;10.00;99.90;;;-144.05;55.60;125687.94;5016479;28;20026;-77
2022/11/14 09:36:46;;;;;;;18.85;11.77;;;10.00;99.90;;;-144.05;57.09;125687.94;5018236;28;20074;-80
2022/11/14 09:39:12;;;;;;;16.35;10.68;;;9.90;99.90;;;-144.05;55.97;125687.94;5017715;28;20079;-78
2022/11/14 09:42:23;;;;;;;17.67;11.52;;;10.00;99.90;;;-144.05;56.59;125687.94;5017995;28;20500;-79
2022/11/14 09:45:13;;;;;;;19.98;12.43;;;9.80;99.90;;;-144.05;57.77;125687.94;5051339;23;20528;-78
2022/11/14 09:47:54;;;;;;;24.40;13.18;;;9.60;99.90;;;-144.05;58.56;125687.94;5051492;28;20056;-78
2022/11/14 09:50:33;;;;;;;20.73;12.68;;;9.20;99.90;;;-144.05;58.97;125687.94;5036872;28;20025;-78
2022/11/14 09:53:19;;;;;;;21.58;12.70;;;9.10;99.90;;;-144.05;58.86;125687.94;5037428;28;20053;-77
2022/11/14 09:55:45;;;;;;;20.85;12.57;;;9.10;99.90;;;-144.05;59.34;125687.94;5018189;28;20049;-79
2022/11/14 09:58:19;;;;;;;18.27;12.60;;;9.20;99.90;;;-144.05;58.16;125687.94;5019157;28;20045;-77
2022/11/14 10:01:16;;;;;;;20.65;12.00;;;9.30;99.90;;;-144.05;58.12;125687.94;5018069;28;20038;-78